Flight Track Log - Related Links

Times and Time Zones

All times are in EDT time to prevent confusion due to time zone crossing. See the N3730Y flight status page for this flight to view local times or setup timezone preferences in your user account.

Time Position Orientation Groundspeed Altitude Reporting Facility
EDT Latitude Longitude Course Direction KTS MPH feet Rate Location/Type
Fri 03:03:00 PM 37.4609 -81.0937 183° South  Level Estimated
Fri 03:03:15 PM 37.8100 -81.1453 185° South 109 125 3,700  Level Indianapolis Center
Fri 03:04:00 PM 37.4066 -81.1001 185° South  Level FlightAware Approximate
Fri 03:04:29 PM 37.7592 -81.1492 183° South 151 174 4,900  Level Indianapolis Center
Fri 03:05:00 PM 37.3523 -81.1064 185° South  Level FlightAware Approximate
Fri 03:05:32 PM 37.7175 -81.1483 179° South 154 177 5,800  Level Indianapolis Center
Fri 03:06:00 PM 37.2979 -81.1127 185° South  Level FlightAware Approximate
Fri 03:06:34 PM 37.6628 -81.1472 179° South 167 192 6,600  Level Indianapolis Center
Fri 03:07:00 PM 37.2436 -81.1189 185° South  Level FlightAware Approximate
Fri 03:07:36 PM 37.6161 -81.1458 179° South 170 196 7,300  Level Indianapolis Center
Fri 03:08:00 PM 37.1893 -81.1252 185° South  Level FlightAware Approximate
Fri 03:08:38 PM 37.5692 -81.1444 179° South 173 199 8,000  Level Indianapolis Center
Fri 03:09:40 PM 37.5072 -81.1425 179° South 192 221 8,000  Level Indianapolis Center
Fri 03:10:42 PM 37.4533 -81.1450 182° South 198 228 8,000  Level Indianapolis Center
Fri 03:11:44 PM 37.3983 -81.1492 183° South 202 232 8,000  Level Indianapolis Center
Fri 03:12:46 PM 37.3314 -81.1528 182° South 205 236 8,000  Level Indianapolis Center
Fri 03:13:48 PM 37.2761 -81.1567 183° South 206 237 8,000  Level Indianapolis Center
Fri 03:14:50 PM 37.2206 -81.1600 183° South 205 236 8,000  Level Indianapolis Center
Fri 03:15:52 PM 37.1658 -81.1625 182° South 204 235 8,000  Level Indianapolis Center
Fri 03:16:54 PM 37.0997 -81.1667 183° South 203 234 8,000 -50 Level Indianapolis Center
Fri 03:17:53 PM 37.0383 -81.1708 183° South 214 246 7,900 -50 Descending Atlanta Center
Fri 03:18:53 PM 36.9800 -81.1728 182° South 214 246 7,900  Level Atlanta Center
Fri 03:19:53 PM 36.9300 -81.1772 184° South 214 246 7,900  Level Atlanta Center
Fri 03:20:53 PM 36.8736 -81.1794 182° South 214 246 7,900  Level Atlanta Center
Fri 03:21:53 PM 36.8156 -81.1839 184° South 214 246 7,900 50 Level Atlanta Center
Fri 03:22:53 PM 36.7550 -81.1889 184° South 214 246 8,000 50 Climbing Atlanta Center
Fri 03:23:53 PM 36.6967 -81.1883 180° South 214 246 8,000  Level Atlanta Center
Fri 03:24:53 PM 36.6383 -81.1931 184° South 214 246 8,000  Level Atlanta Center
Fri 03:25:53 PM 36.5822 -81.1950 182° South 213 245 8,000  Level Atlanta Center
Fri 03:26:53 PM 36.5239 -81.2022 186° South 213 245 8,000  Level Atlanta Center
Fri 03:27:53 PM 36.4636 -81.2069 184° South 218 251 8,000  Level Atlanta Center
Fri 03:28:53 PM 36.4072 -81.2089 182° South 218 251 8,000  Level Atlanta Center
Fri 03:29:53 PM 36.3511 -81.2108 182° South 213 245 8,000  Level Atlanta Center
Fri 03:30:53 PM 36.2969 -81.2153 184° South 213 245 8,000  Level Atlanta Center
Fri 03:31:53 PM 36.2386 -81.2200 184° South 213 245 8,000  Level Atlanta Center
Fri 03:32:53 PM 36.1825 -81.2219 182° South 213 245 8,000  Level Atlanta Center
Fri 03:33:53 PM 36.1242 -81.2264 184° South 211 243 8,000 -100 Level Atlanta Center
Fri 03:34:53 PM 36.0658 -81.2286 182° South 211 243 7,800 -300 Descending Atlanta Center
Fri 03:35:53 PM 36.0053 -81.2331 183° South 216 249 7,400 -400 Descending Atlanta Center
Fri 03:36:53 PM 35.9367 -81.2381 183° South 221 254 7,000 -400 Descending Atlanta Center
Fri 03:37:53 PM 35.8761 -81.2428 184° South 221 254 6,600 -400 Descending Atlanta Center
Fri 03:38:53 PM 35.8178 -81.2447 182° South 216 249 6,200 -390 Descending Atlanta Center
Fri 03:39:10 PM 35.7992 -81.2456 182° South 215 247 6,100 -200 Descending Atlanta Center
Fri 03:39:53 PM 35.7575 -81.2494 184° South 216 249 6,000 -98 Descending Atlanta Center
Fri 03:40:11 PM 35.7431 -81.2525 190° South 210 242 6,000  Level Atlanta Center
Fri 03:40:53 PM 35.7033 -81.2514 179° South 203 234 6,000  Level Atlanta Center
Fri 03:41:12 PM 35.6889 -81.2544 190° South 188 216 6,000  Level Atlanta Center
Fri 03:41:53 PM 35.6511 -81.2556 181° South 198 228 6,000  Level Atlanta Center
Fri 03:42:12 PM 35.6306 -81.2589 188° South 191 220 6,000  Level Atlanta Center
Fri 03:42:53 PM 35.5992 -81.2625 185° South 198 228 6,000  Level Atlanta Center
Fri 03:43:19 PM 35.5742 -81.2608 177° South 191 220 6,000  Level Atlanta Center
Fri 03:43:53 PM 35.5453 -81.2694 194° South 198 228 6,000  Level Atlanta Center
Fri 03:44:20 PM 35.5247 -81.2881 216° Southwest 185 213 6,000  Level Atlanta Center
Fri 03:44:53 PM 35.5000 -81.3067 212° Southwest 190 219 6,000  Level Atlanta Center
Fri 03:45:21 PM 35.4836 -81.3175 208° Southwest 182 209 6,000  Level Atlanta Center
Fri 03:45:53 PM 35.4592 -81.3386 215° Southwest 190 219 6,000  Level Atlanta Center
Fri 03:46:16 PM 35.4447 -81.3519 217° Southwest 186 214 6,000  Level Atlanta Center
Fri 03:46:53 PM 35.4139 -81.3733 209° Southwest 191 220 6,000  Level Atlanta Center
Fri 03:47:23 PM 35.3914 -81.3892 210° Southwest 194 223 6,000  Level Atlanta Center
Fri 03:47:53 PM 35.3644 -81.3953 190° South 191 220 6,000  Level Atlanta Center
Fri 03:48:18 PM 35.3436 -81.3958 181° South 194 223 6,000  Level Atlanta Center
Fri 03:48:53 PM 35.3122 -81.3994 185° South 191 220 6,000  Level Atlanta Center
Fri 03:49:18 PM 35.2894 -81.4028 187° South 191 220 6,000  Level Atlanta Center
Fri 03:50:19 PM 35.2372 -81.4069 184° South 189 217 6,000  Level Atlanta Center
Fri 03:51:38 PM 35.1686 -81.4142 185° South 186 214 6,000  Level Atlanta Center
Fri 03:52:09 PM 35.1414 -81.4125 177° South 187 215 6,000  Level Atlanta Center
Fri 03:53:28 PM 35.0725 -81.4044 175° South 188 216 6,000  Level Atlanta Center
Fri 03:54:35 PM 35.0097 -81.4039 180° South 194 223 6,000  Level Atlanta Center
Fri 03:55:29 PM 34.9617 -81.4031 179° South 191 220 6,000  Level Atlanta Center
Fri 03:56:31 PM 34.9094 -81.3994 177° South 191 220 6,000  Level Atlanta Center
Fri 03:57:37 PM 34.8511 -81.3939 176° South 192 221 6,000  Level Atlanta Center
Fri 03:58:32 PM 34.8031 -81.3928 179° South 193 222 6,000  Level Atlanta Center
Fri 03:59:33 PM 34.7506 -81.3792 168° South 201 231 6,000  Level Atlanta Center
Fri 04:00:40 PM 34.6956 -81.3508 157° South 191 220 6,000  Level Atlanta Center
Fri 04:01:23 PM 34.6597 -81.3317 156° South 194 223 6,000  Level Atlanta Center
Fri 04:03:00 PM 34.5782 -81.3016 163° South  Level FlightAware Approximate
Fri 04:10:00 PM 34.2099 -81.2610 179° South  Level FlightAware Approximate
Fri 04:11:00 PM 34.1572 -81.2600 179° South  Level FlightAware Approximate
Fri 04:12:00 PM 34.1044 -81.2589 179° South  Level FlightAware Approximate
Fri 04:13:00 PM 34.0517 -81.2578 179° South  Level FlightAware Approximate
Fri 04:14:00 PM 33.9990 -81.2567 179° South  Level FlightAware Approximate
Fri 04:15:00 PM 33.9463 -81.2557 179° South  Level FlightAware Approximate
Fri 04:15:28 PM 33.9139 -81.2833 179° South 196 226 6,000  Level Jacksonville Center
Fri 04:16:00 PM 33.8936 -81.2546 179° South  Level FlightAware Approximate
Fri 04:16:28 PM 33.8575 -81.2819 179° South 196 226 6,000  Level Jacksonville Center
Fri 04:17:00 PM 33.8408 -81.2535 179° South  Level FlightAware Approximate
Fri 04:17:28 PM 33.8031 -81.2806 179° South 191 220 6,000  Level Jacksonville Center
Fri 04:18:00 PM 33.7881 -81.2525 179° South  Level FlightAware Approximate
Fri 04:18:28 PM 33.7489 -81.2764 176° South 191 220 6,000  Level Jacksonville Center
Fri 04:19:00 PM 33.7354 -81.2514 179° South  Level FlightAware Approximate
Fri 04:19:28 PM 33.6967 -81.2750 179° South 191 220 6,000  Level Jacksonville Center
Fri 04:20:28 PM 33.6425 -81.2733 179° South 191 220 6,000  Level Jacksonville Center
Fri 04:21:28 PM 33.5922 -81.2719 179° South 191 220 6,000  Level Jacksonville Center
Fri 04:22:28 PM 33.5400 -81.2703 178° South 191 220 6,000  Level Jacksonville Center
Fri 04:23:28 PM 33.4900 -81.2661 176° South 191 220 6,000  Level Jacksonville Center
Fri 04:24:28 PM 33.4356 -81.2647 179° South 196 226 6,000 -50 Level Jacksonville Center
Fri 04:25:28 PM 33.3833 -81.2608 176° South 196 226 5,900 -50 Descending Jacksonville Center
Fri 04:26:28 PM 33.3311 -81.2592 178° South 196 226 5,900  Level Jacksonville Center
Fri 04:27:28 PM 33.2769 -81.2603 181° South 196 226 5,900  Level Jacksonville Center
Fri 04:28:28 PM 33.2247 -81.2561 176° South 196 226 5,900  Level Jacksonville Center
Fri 04:29:28 PM 33.1725 -81.2522 176° South 196 226 5,900 50 Level Jacksonville Center
Fri 04:30:28 PM 33.1183 -81.2531 181° South 196 226 6,000 50 Climbing Jacksonville Center
Fri 04:31:28 PM 33.0639 -81.2492 177° South 196 226 6,000 -50 Level Jacksonville Center
Fri 04:32:28 PM 33.0139 -81.2478 179° South 196 226 5,900 -50 Descending Jacksonville Center
Fri 04:33:28 PM 32.9594 -81.2461 179° South 196 226 5,900  Level Jacksonville Center
Fri 04:34:28 PM 32.9072 -81.2422 176° South 196 226 5,900  Level Jacksonville Center
Fri 04:35:28 PM 32.8531 -81.2408 179° South 202 232 5,900  Level Jacksonville Center
Fri 04:36:28 PM 32.7986 -81.2392 179° South 197 227 5,900  Level Jacksonville Center
Fri 04:37:28 PM 32.7464 -81.2378 179° South 197 227 5,900  Level Jacksonville Center
Fri 04:38:28 PM 32.6900 -81.2339 177° South 197 227 5,900 50 Level Jacksonville Center
Fri 04:39:28 PM 32.6442 -81.2372 184° South 197 227 6,000 50 Climbing Jacksonville Center
Fri 04:40:28 PM 32.5900 -81.2356 179° South 197 227 6,000  Level Jacksonville Center
Fri 04:41:28 PM 32.5294 -81.2319 177° South 197 227 6,000  Level Jacksonville Center
Fri 04:42:28 PM 32.4750 -81.2303 179° South 197 227 6,000  Level Jacksonville Center
Fri 04:43:28 PM 32.4228 -81.2264 176° South 195 224 6,000  Level Jacksonville Center
Fri 04:44:28 PM 32.3769 -81.2247 178° South 200 230 6,000  Level Jacksonville Center
Fri 04:45:28 PM 32.3247 -81.2258 181° South 200 230 6,000  Level Jacksonville Center
Fri 04:46:28 PM 32.2661 -81.2219 177° South 200 230 6,000  Level Jacksonville Center
Fri 04:47:28 PM 32.2119 -81.2203 179° South 200 230 6,000 208 Level Jacksonville Center
Fri 04:49:00 PM 32.1325 -81.2146 177° South  Level FlightAware Approximate
Fri 04:56:00 PM 31.7697 -81.1890 177° South  Level FlightAware Approximate
Fri 04:56:05 PM 31.7733 -81.2039 177° South 170 196 8,000  Level Jacksonville Center
Fri 04:57:00 PM 31.7178 -81.1854 177° South  Level FlightAware Approximate
Fri 04:57:05 PM 31.7211 -81.2025 179° South 184 212 8,000  Level Jacksonville Center
Fri 04:58:00 PM 31.6660 -81.1818 177° South  Level FlightAware Approximate
Fri 04:58:05 PM 31.6625 -81.1986 177° South 189 217 8,000  Level Jacksonville Center
Fri 04:59:00 PM 31.6142 -81.1781 177° South  Level FlightAware Approximate
Fri 04:59:05 PM 31.6125 -81.1969 178° South 194 223 8,000  Level Jacksonville Center
Fri 05:00:00 PM 31.5623 -81.1745 177° South  Level FlightAware Approximate
Fri 05:00:05 PM 31.5603 -81.1956 179° South 194 223 8,000  Level Jacksonville Center
Fri 05:01:05 PM 31.5142 -81.1939 178° South 194 223 8,000  Level Jacksonville Center
Fri 05:02:05 PM 31.4619 -81.1925 179° South 194 223 8,000  Level Jacksonville Center
Fri 05:03:05 PM 31.4033 -81.1886 177° South 194 223 8,000  Level Jacksonville Center
Fri 05:04:05 PM 31.3533 -81.1872 179° South 194 223 8,000  Level Jacksonville Center
Fri 05:05:05 PM 31.3053 -81.1881 181° South 194 223 8,000  Level Jacksonville Center
Fri 05:06:05 PM 31.2531 -81.1842 176° South 194 223 8,000  Level Jacksonville Center
Fri 05:07:05 PM 31.1967 -81.1828 179° South 194 223 8,000  Level Jacksonville Center
Fri 05:08:05 PM 31.1444 -81.1814 179° South 194 223 8,000  Level Jacksonville Center
Fri 05:09:05 PM 31.0942 -81.1772 176° South 194 223 8,000 -50 Level Jacksonville Center
Fri 05:10:05 PM 31.0400 -81.1783 181° South 194 223 7,900 -50 Descending Jacksonville Center
Fri 05:11:05 PM 30.9878 -81.1769 179° South 194 223 7,900  Level Jacksonville Center
Fri 05:12:05 PM 30.9378 -81.1778 181° South 189 217 7,900  Level Jacksonville Center
Fri 05:13:05 PM 30.8856 -81.1714 174° South 195 224 7,900 48 Level Jacksonville Center
Fri 05:14:11 PM 30.8247 -81.1678 177° South 186 214 8,000 58 Climbing Jacksonville Center
Fri 05:14:48 PM 30.7936 -81.1658 177° South 187 215 8,000 -111 Level Jacksonville Center
Fri 05:15:05 PM 30.7811 -81.1686 191° South 195 224 7,900  Descending Jacksonville Center
Fri 05:15:49 PM 30.7414 -81.1667 178° South 188 216 8,000  Climbing Jacksonville Center
Fri 05:16:05 PM 30.7267 -81.1647 174° South 195 224 7,900  Descending Jacksonville Center
Fri 05:16:50 PM 30.6892 -81.1631 178° South 187 215 8,000  Climbing Jacksonville Center
Fri 05:17:05 PM 30.6767 -81.1631 180° South 195 224 7,900  Descending Jacksonville Center
Fri 05:17:51 PM 30.6369 -81.1639 181° South 184 212 8,000  Climbing Jacksonville Center
Fri 05:18:05 PM 30.6264 -81.1617 170° South 190 219 7,900 -81 Descending Jacksonville Center
Fri 05:19:05 PM 30.5742 -81.1578 176° South 190 219 7,900 56 Level Jacksonville Center
Fri 05:19:53 PM 30.5325 -81.1586 181° South 184 212 8,000  Climbing Jacksonville Center
Fri 05:20:05 PM 30.5242 -81.1586 180° South 190 219 7,900  Descending Jacksonville Center
Fri 05:20:54 PM 30.4803 -81.1569 178° South 182 209 8,000  Climbing Jacksonville Center
Fri 05:21:05 PM 30.4697 -81.1550 171° South 190 219 7,900  Descending Jacksonville Center
Fri 05:21:55 PM 30.4281 -81.1533 178° South 184 212 8,000  Climbing Jacksonville Center
Fri 05:22:05 PM 30.4217 -81.1533 180° South 190 219 7,900 -86 Descending Jacksonville Center
Fri 05:23:05 PM 30.3694 -81.1519 179° South 190 219 7,900 54 Level Jacksonville Center
Fri 05:23:57 PM 30.3256 -81.1528 181° South 182 209 8,000  Climbing Jacksonville Center
Fri 05:24:05 PM 30.3172 -81.1503 165° South 190 219 7,900  Descending Jacksonville Center
Fri 05:24:58 PM 30.2756 -81.1464 175° South 183 211 8,000 53 Climbing Jacksonville Center
Fri 05:25:59 PM 30.2233 -81.1472 181° South 182 209 8,000 -49 Level Jacksonville Center
Fri 05:27:00 PM 30.1731 -81.1458 179° South 182 209 7,900  Descending Jacksonville Center
Fri 05:28:01 PM 30.1189 -81.1419 176° South 181 208 8,000 51 Climbing Jacksonville Center
Fri 05:28:57 PM 30.0708 -81.1406 179° South 186 214 8,000  Level Jacksonville Center
Fri 05:30:04 PM 30.0122 -81.1392 179° South 185 213 8,000 59 Level Jacksonville Center
Fri 05:30:39 PM 29.9831 -81.1397 181° South 185 213 8,100 63 Climbing Jacksonville Center
Fri 05:31:40 PM 29.9308 -81.1383 179° South 187 215 8,100  Level Jacksonville Center
Fri 05:32:41 PM 29.8786 -81.1367 178° South 186 214 8,100  Level Jacksonville Center
Fri 05:33:42 PM 29.8244 -81.1331 177° South 184 212 8,100  Level Jacksonville Center
Fri 05:34:43 PM 29.7742 -81.1339 181° South 184 212 8,100  Level Jacksonville Center
Fri 05:35:44 PM 29.7219 -81.1325 179° South 184 212 8,100  Level Jacksonville Center
Fri 05:36:39 PM 29.6739 -81.1286 176° South 185 213 8,100  Level Jacksonville Center
Fri 05:37:51 PM 29.6114 -81.1272 179° South 185 213 8,100  Level Jacksonville Center
Fri 05:38:53 PM 29.5611 -81.1233 176° South 183 211 8,100  Level Jacksonville Center
Fri 05:39:59 PM 29.5047 -81.1244 181° South 184 212 8,100  Level Jacksonville Center
Fri 05:41:00 PM 29.4483 -81.1231 179° South 187 215 8,100  Level Jacksonville Center
Fri 05:41:49 PM 29.4108 -81.1189 174° South 186 214 8,100  Level Jacksonville Center
Fri 05:43:02 PM 29.3461 -81.1178 179° South 187 215 8,100 -47 Level Jacksonville Center
Fri 05:43:57 PM 29.2981 -81.1139 176° South 186 214 8,000  Descending Jacksonville Center
Fri 05:44:58 PM 29.2475 -81.0933 160° South 192 221 8,100 47 Climbing Jacksonville Center
Fri 05:46:05 PM 29.1889 -81.0706 161° South 190 219 8,100 -31 Level Jacksonville Center
Fri 05:48:13 PM 29.0833 -81.0333 163° South 189 217 8,000 -33 Descending Orlando TRACON
Fri 05:49:08 PM 29.0500 -81.0000 139° Southeast 189 217 8,000  Level Orlando TRACON
Fri 05:50:20 PM 28.9833 -80.9833 168° South 190 219 8,000  Level Orlando TRACON
Fri 05:51:20 PM 28.9333 -80.9667 164° South 190 219 8,000  Level Orlando TRACON
Fri 05:52:14 PM 28.8833 -80.9500 164° South 191 220 8,000  Level Orlando TRACON
Fri 05:53:14 PM 28.8333 -80.9167 150° Southeast 193 222 8,000  Level Orlando TRACON
Fri 05:54:20 PM 28.7833 -80.9000 164° South 191 220 8,000  Level Orlando TRACON
Fri 05:55:14 PM 28.7333 -80.8833 164° South 190 219 8,000  Level Orlando TRACON
Fri 05:56:14 PM 28.6833 -80.8667 164° South 189 217 8,000  Level Orlando TRACON
Fri 05:57:14 PM 28.6333 -80.8500 164° South 189 217 8,000  Level Orlando TRACON
Fri 05:58:14 PM 28.5833 -80.8167 150° Southeast 190 219 8,000  Level Orlando TRACON
Fri 05:59:14 PM 28.5333 -80.8000 164° South 188 216 8,000  Level Orlando TRACON
Fri 06:00:20 PM 28.4833 -80.7833 164° South 189 217 8,000  Level Orlando TRACON
Fri 06:01:21 PM 28.4333 -80.7667 164° South 187 215 8,000  Level Orlando TRACON
Fri 06:02:21 PM 28.3833 -80.7500 164° South 187 215 8,000  Level Orlando TRACON
Fri 06:03:09 PM 28.3500 -80.7333 156° South 183 211 8,000  Level Orlando TRACON
Fri 06:04:15 PM 28.2833 -80.7000 156° South 183 211 8,000  Level Orlando TRACON
Fri 06:06:00 PM 28.2103 -80.6781 165° South 195 224 8,000  Level Miami Center
Fri 06:07:00 PM 28.1628 -80.6600 161° South 195 224 8,000  Level Miami Center
Fri 06:08:00 PM 28.1089 -80.6442 165° South 181 208 8,000  Level Miami Center
Fri 06:09:00 PM 28.0592 -80.6258 162° South 186 214 8,000  Level Miami Center
Fri 06:10:00 PM 28.0117 -80.6103 164° South 186 214 8,000  Level Miami Center
Fri 06:11:00 PM 27.9661 -80.5947 163° South 186 214 8,000  Level Miami Center
Fri 06:12:00 PM 27.9186 -80.5789 164° South 186 214 8,000  Level Miami Center
Fri 06:13:00 PM 27.8647 -80.5608 164° South 181 208 8,000  Level Miami Center
Fri 06:14:00 PM 27.8172 -80.5453 164° South 186 214 8,000  Level Miami Center
Fri 06:15:00 PM 27.7694 -80.5294 164° South 186 214 8,000  Level Miami Center
Fri 06:16:00 PM 27.7239 -80.5139 163° South 186 214 8,000  Level Miami Center
Fri 06:17:00 PM 27.6744 -80.4961 162° South 186 214 8,000  Level Miami Center
Fri 06:18:00 PM 27.6206 -80.4803 165° South 186 214 8,000  Level Miami Center
Fri 06:19:00 PM 27.5728 -80.4625 162° South 186 214 8,000 -100 Level Miami Center
Fri 06:20:00 PM 27.5211 -80.4467 165° South 186 214 7,800 -300 Descending Miami Center
Fri 06:21:00 PM 27.4733 -80.4311 164° South 186 214 7,400 -500 Descending Miami Center
Fri 06:22:00 PM 27.4175 -80.4131 164° South 198 228 6,800 -600 Descending Miami Center
Fri 06:23:00 PM 27.3553 -80.3925 164° South 210 242 6,200 -600 Descending Miami Center
Fri 06:24:00 PM 27.2994 -80.3719 162° South 210 242 5,600 -550 Descending Miami Center
Fri 06:25:00 PM 27.2456 -80.3539 163° South 210 242 5,100 -450 Descending Miami Center
Fri 06:26:00 PM 27.1958 -80.3386 165° South 205 236 4,700 -450 Descending Miami Center
Fri 06:27:00 PM 27.1461 -80.3231 164° South 205 236 4,200 -550 Descending Miami Center
Fri 06:28:00 PM 27.0883 -80.3025 162° South 197 227 3,600 -600 Descending Miami Center
Fri 06:29:00 PM 27.0364 -80.2847 163° South 202 232 3,000 -600 Descending Miami Center
Fri 06:30:00 PM 26.9847 -80.2692 165° South 202 232 2,400 -300 Descending Miami Center
Fri 06:31:00 PM 26.9369 -80.2586 169° South 202 232 2,400 2,050 Level Miami Center
Fri 06:32:00 PM 26.8850 -80.2408 163° South 202 232 6,500 4,100 Climbing Miami Center
Fri 06:33:00 PM 26.8459 -80.2223 157° South  Level Estimated
Fri 06:40:00 PM 26.8459 -80.2223 170° South  Level Estimated
Fri 06:41:00 PM 26.8459 -80.2223 170° South  Level Estimated
Fri 06:42:00 PM 26.8459 -80.2223 170° South  Level Estimated
Fri 06:43:00 PM 26.8459 -80.2223 170° South  Level Estimated
Fri 06:44:00 PM 26.8459 -80.2223 170° South  Level Estimated
Fri 06:45:00 PM 26.8459 -80.2223 170° South  Level Estimated
Fri 06:46:00 PM 26.8459 -80.2223 170° South  Level Estimated
Fri 06:47:00 PM 26.8459 -80.2223 170° South  Level Estimated
Fri 06:48:00 PM 26.8459 -80.2223 170° South  Level Estimated
Fri 06:49:00 PM 26.8459 -80.2223 170° South  Level Estimated

Login

Don't have an account? Register now (free) for customized features, flight alerts, and more!